sensor_id;sensor_type;location;lat;lon;timestamp;P1;durP1;ratioP1;P2;durP2;ratioP2
5845;SDS011;2949;50.778;7.094;2023-11-19T00:00:25;5.83;;;2.60;;
5845;SDS011;2949;50.778;7.094;2023-11-19T00:02:51;2.30;;;1.70;;
5845;SDS011;2949;50.778;7.094;2023-11-19T00:05:16;1.57;;;1.47;;
5845;SDS011;2949;50.778;7.094;2023-11-19T00:07:44;0.60;;;0.60;;
5845;SDS011;2949;50.778;7.094;2023-11-19T00:10:10;1.97;;;0.80;;
5845;SDS011;2949;50.778;7.094;2023-11-19T00:12:37;1.33;;;0.50;;
5845;SDS011;2949;50.778;7.094;2023-11-19T00:15:07;0.57;;;0.57;;
5845;SDS011;2949;50.778;7.094;2023-11-19T00:17:37;1.43;;;0.40;;
5845;SDS011;2949;50.778;7.094;2023-11-19T00:20:05;2.37;;;0.40;;
5845;SDS011;2949;50.778;7.094;2023-11-19T00:22:32;1.30;;;0.67;;
5845;SDS011;2949;50.778;7.094;2023-11-19T00:24:57;2.10;;;0.50;;
5845;SDS011;2949;50.778;7.094;2023-11-19T00:27:24;0.57;;;0.57;;
5845;SDS011;2949;50.778;7.094;2023-11-19T00:29:50;0.40;;;0.33;;
5845;SDS011;2949;50.778;7.094;2023-11-19T00:32:15;0.50;;;0.50;;
5845;SDS011;2949;50.778;7.094;2023-11-19T00:34:43;0.63;;;0.63;;
5845;SDS011;2949;50.778;7.094;2023-11-19T00:37:09;1.33;;;0.60;;
5845;SDS011;2949;50.778;7.094;2023-11-19T00:39:35;0.37;;;0.37;;
5845;SDS011;2949;50.778;7.094;2023-11-19T00:42:00;0.60;;;0.50;;
5845;SDS011;2949;50.778;7.094;2023-11-19T00:44:26;0.60;;;0.43;;
5845;SDS011;2949;50.778;7.094;2023-11-19T00:46:51;2.53;;;0.40;;
5845;SDS011;2949;50.778;7.094;2023-11-19T00:49:17;0.50;;;0.50;;
5845;SDS011;2949;50.778;7.094;2023-11-19T00:51:42;0.30;;;0.20;;
5845;SDS011;2949;50.778;7.094;2023-11-19T00:54:08;2.83;;;0.40;;
5845;SDS011;2949;50.778;7.094;2023-11-19T00:56:33;0.40;;;0.40;;
5845;SDS011;2949;50.778;7.094;2023-11-19T00:58:59;0.40;;;0.40;;
5845;SDS011;2949;50.778;7.094;2023-11-19T01:01:25;1.63;;;0.70;;
5845;SDS011;2949;50.778;7.094;2023-11-19T01:03:51;0.60;;;0.60;;
5845;SDS011;2949;50.778;7.094;2023-11-19T01:06:26;0.80;;;0.67;;
5845;SDS011;2949;50.778;7.094;2023-11-19T01:08:55;2.87;;;0.60;;
5845;SDS011;2949;50.778;7.094;2023-11-19T01:11:24;0.50;;;0.50;;
5845;SDS011;2949;50.778;7.094;2023-11-19T01:13:50;0.30;;;0.30;;
5845;SDS011;2949;50.778;7.094;2023-11-19T01:16:16;0.70;;;0.50;;
5845;SDS011;2949;50.778;7.094;2023-11-19T01:18:43;1.37;;;0.47;;
5845;SDS011;2949;50.778;7.094;2023-11-19T01:21:12;1.07;;;0.40;;
5845;SDS011;2949;50.778;7.094;2023-11-19T01:23:39;0.30;;;0.30;;
5845;SDS011;2949;50.778;7.094;2023-11-19T01:26:05;1.30;;;0.40;;
5845;SDS011;2949;50.778;7.094;2023-11-19T01:28:31;0.40;;;0.40;;
5845;SDS011;2949;50.778;7.094;2023-11-19T01:30:56;2.20;;;0.63;;
5845;SDS011;2949;50.778;7.094;2023-11-19T01:33:22;0.80;;;0.40;;
5845;SDS011;2949;50.778;7.094;2023-11-19T01:35:47;4.13;;;0.60;;
5845;SDS011;2949;50.778;7.094;2023-11-19T01:38:13;0.47;;;0.40;;
5845;SDS011;2949;50.778;7.094;2023-11-19T01:40:39;2.20;;;0.70;;
5845;SDS011;2949;50.778;7.094;2023-11-19T01:43:05;0.87;;;0.47;;
5845;SDS011;2949;50.778;7.094;2023-11-19T01:45:30;0.53;;;0.50;;
5845;SDS011;2949;50.778;7.094;2023-11-19T01:47:57;9.40;;;0.40;;
5845;SDS011;2949;50.778;7.094;2023-11-19T01:50:28;3.67;;;0.40;;
5845;SDS011;2949;50.778;7.094;2023-11-19T01:52:55;0.60;;;0.60;;
5845;SDS011;2949;50.778;7.094;2023-11-19T01:55:22;0.73;;;0.33;;
5845;SDS011;2949;50.778;7.094;2023-11-19T01:57:50;1.47;;;0.30;;
5845;SDS011;2949;50.778;7.094;2023-11-19T02:00:18;0.30;;;0.30;;
5845;SDS011;2949;50.778;7.094;2023-11-19T02:02:45;1.27;;;0.60;;
5845;SDS011;2949;50.778;7.094;2023-11-19T02:05:13;0.50;;;0.50;;
5845;SDS011;2949;50.778;7.094;2023-11-19T02:07:39;1.90;;;0.47;;
5845;SDS011;2949;50.778;7.094;2023-11-19T02:10:05;0.67;;;0.67;;
5845;SDS011;2949;50.778;7.094;2023-11-19T02:12:37;1.03;;;0.40;;
5845;SDS011;2949;50.778;7.094;2023-11-19T02:15:03;0.50;;;0.40;;
5845;SDS011;2949;50.778;7.094;2023-11-19T02:17:30;0.70;;;0.50;;
5845;SDS011;2949;50.778;7.094;2023-11-19T02:19:56;0.50;;;0.50;;
5845;SDS011;2949;50.778;7.094;2023-11-19T02:22:23;0.50;;;0.50;;
5845;SDS011;2949;50.778;7.094;2023-11-19T02:24:49;0.40;;;0.27;;
5845;SDS011;2949;50.778;7.094;2023-11-19T02:27:30;0.50;;;0.50;;
5845;SDS011;2949;50.778;7.094;2023-11-19T02:30:16;1.90;;;0.30;;
5845;SDS011;2949;50.778;7.094;2023-11-19T02:32:45;1.53;;;0.47;;
5845;SDS011;2949;50.778;7.094;2023-11-19T02:35:11;0.60;;;0.40;;
5845;SDS011;2949;50.778;7.094;2023-11-19T02:37:37;0.50;;;0.40;;
5845;SDS011;2949;50.778;7.094;2023-11-19T02:40:04;0.40;;;0.40;;
5845;SDS011;2949;50.778;7.094;2023-11-19T02:42:30;5.70;;;0.70;;
5845;SDS011;2949;50.778;7.094;2023-11-19T02:44:56;0.33;;;0.33;;
5845;SDS011;2949;50.778;7.094;2023-11-19T02:47:22;3.43;;;0.40;;
5845;SDS011;2949;50.778;7.094;2023-11-19T02:49:49;0.47;;;0.47;;
5845;SDS011;2949;50.778;7.094;2023-11-19T02:52:15;0.80;;;0.60;;
5845;SDS011;2949;50.778;7.094;2023-11-19T02:54:40;0.30;;;0.30;;
5845;SDS011;2949;50.778;7.094;2023-11-19T02:57:07;0.50;;;0.50;;
5845;SDS011;2949;50.778;7.094;2023-11-19T02:59:38;1.13;;;0.40;;
5845;SDS011;2949;50.778;7.094;2023-11-19T03:02:06;0.63;;;0.40;;
5845;SDS011;2949;50.778;7.094;2023-11-19T03:04:36;0.67;;;0.50;;
5845;SDS011;2949;50.778;7.094;2023-11-19T03:07:03;0.80;;;0.40;;
5845;SDS011;2949;50.778;7.094;2023-11-19T03:09:28;0.80;;;0.50;;
5845;SDS011;2949;50.778;7.094;2023-11-19T03:11:54;0.33;;;0.33;;
5845;SDS011;2949;50.778;7.094;2023-11-19T03:14:20;0.87;;;0.40;;
5845;SDS011;2949;50.778;7.094;2023-11-19T03:16:46;1.43;;;0.40;;
5845;SDS011;2949;50.778;7.094;2023-11-19T03:19:12;0.40;;;0.40;;
5845;SDS011;2949;50.778;7.094;2023-11-19T03:21:37;3.23;;;0.40;;
5845;SDS011;2949;50.778;7.094;2023-11-19T03:24:03;1.13;;;0.40;;
5845;SDS011;2949;50.778;7.094;2023-11-19T03:26:29;4.70;;;0.30;;
5845;SDS011;2949;50.778;7.094;2023-11-19T03:28:54;0.40;;;0.40;;
5845;SDS011;2949;50.778;7.094;2023-11-19T03:31:21;0.60;;;0.30;;
5845;SDS011;2949;50.778;7.094;2023-11-19T03:33:47;3.60;;;0.60;;
5845;SDS011;2949;50.778;7.094;2023-11-19T03:36:13;0.50;;;0.50;;
5845;SDS011;2949;50.778;7.094;2023-11-19T03:38:39;5.23;;;0.50;;
5845;SDS011;2949;50.778;7.094;2023-11-19T03:41:10;1.13;;;0.60;;
5845;SDS011;2949;50.778;7.094;2023-11-19T03:43:37;3.40;;;0.77;;
5845;SDS011;2949;50.778;7.094;2023-11-19T03:46:03;3.63;;;1.23;;
5845;SDS011;2949;50.778;7.094;2023-11-19T03:48:30;2.53;;;0.60;;
5845;SDS011;2949;50.778;7.094;2023-11-19T03:50:56;9.90;;;1.00;;
5845;SDS011;2949;50.778;7.094;2023-11-19T03:53:21;10.03;;;1.03;;
5845;SDS011;2949;50.778;7.094;2023-11-19T03:55:47;18.53;;;1.30;;
5845;SDS011;2949;50.778;7.094;2023-11-19T03:58:12;6.63;;;1.13;;
5845;SDS011;2949;50.778;7.094;2023-11-19T04:00:38;8.43;;;1.87;;
5845;SDS011;2949;50.778;7.094;2023-11-19T04:03:04;11.03;;;1.53;;
5845;SDS011;2949;50.778;7.094;2023-11-19T04:05:29;14.43;;;2.13;;
5845;SDS011;2949;50.778;7.094;2023-11-19T04:07:55;28.93;;;2.20;;
5845;SDS011;2949;50.778;7.094;2023-11-19T04:10:21;21.70;;;2.80;;
5845;SDS011;2949;50.778;7.094;2023-11-19T04:12:47;12.17;;;2.20;;
5845;SDS011;2949;50.778;7.094;2023-11-19T04:15:13;13.93;;;2.87;;
5845;SDS011;2949;50.778;7.094;2023-11-19T04:17:39;16.93;;;2.20;;
5845;SDS011;2949;50.778;7.094;2023-11-19T04:20:05;18.67;;;2.73;;
5845;SDS011;2949;50.778;7.094;2023-11-19T04:22:31;24.87;;;2.70;;
5845;SDS011;2949;50.778;7.094;2023-11-19T04:24:56;7.63;;;2.30;;
5845;SDS011;2949;50.778;7.094;2023-11-19T04:27:22;22.53;;;2.20;;
5845;SDS011;2949;50.778;7.094;2023-11-19T04:29:47;16.57;;;2.17;;
5845;SDS011;2949;50.778;7.094;2023-11-19T04:32:15;27.93;;;2.33;;
5845;SDS011;2949;50.778;7.094;2023-11-19T04:34:41;16.93;;;2.10;;
5845;SDS011;2949;50.778;7.094;2023-11-19T04:37:06;14.03;;;2.90;;
5845;SDS011;2949;50.778;7.094;2023-11-19T04:39:32;12.43;;;2.90;;
5845;SDS011;2949;50.778;7.094;2023-11-19T04:41:57;16.07;;;1.93;;
5845;SDS011;2949;50.778;7.094;2023-11-19T04:44:24;6.27;;;1.73;;
5845;SDS011;2949;50.778;7.094;2023-11-19T04:46:49;9.90;;;2.30;;
5845;SDS011;2949;50.778;7.094;2023-11-19T04:49:15;17.00;;;2.20;;
5845;SDS011;2949;50.778;7.094;2023-11-19T04:51:41;15.30;;;2.50;;
5845;SDS011;2949;50.778;7.094;2023-11-19T04:54:08;20.90;;;2.30;;
5845;SDS011;2949;50.778;7.094;2023-11-19T04:56:34;13.50;;;1.90;;
5845;SDS011;2949;50.778;7.094;2023-11-19T04:59:03;21.50;;;2.10;;
5845;SDS011;2949;50.778;7.094;2023-11-19T05:01:30;11.63;;;2.00;;
5845;SDS011;2949;50.778;7.094;2023-11-19T05:03:56;15.07;;;2.17;;
5845;SDS011;2949;50.778;7.094;2023-11-19T05:06:26;21.43;;;2.77;;
5845;SDS011;2949;50.778;7.094;2023-11-19T05:08:53;17.60;;;2.30;;
5845;SDS011;2949;50.778;7.094;2023-11-19T05:11:19;11.53;;;2.10;;
5845;SDS011;2949;50.778;7.094;2023-11-19T05:13:45;13.33;;;3.47;;
5845;SDS011;2949;50.778;7.094;2023-11-19T05:16:10;20.27;;;2.73;;
5845;SDS011;2949;50.778;7.094;2023-11-19T05:18:39;31.07;;;3.07;;
5845;SDS011;2949;50.778;7.094;2023-11-19T05:21:05;15.73;;;2.17;;
5845;SDS011;2949;50.778;7.094;2023-11-19T05:23:31;32.80;;;3.43;;
5845;SDS011;2949;50.778;7.094;2023-11-19T05:25:58;26.70;;;3.50;;
5845;SDS011;2949;50.778;7.094;2023-11-19T05:28:25;21.33;;;2.63;;
5845;SDS011;2949;50.778;7.094;2023-11-19T05:30:51;16.40;;;3.60;;
5845;SDS011;2949;50.778;7.094;2023-11-19T05:33:16;8.90;;;2.30;;
5845;SDS011;2949;50.778;7.094;2023-11-19T05:35:42;23.67;;;2.57;;
5845;SDS011;2949;50.778;7.094;2023-11-19T05:38:07;24.07;;;3.20;;
5845;SDS011;2949;50.778;7.094;2023-11-19T05:40:34;32.40;;;3.57;;
5845;SDS011;2949;50.778;7.094;2023-11-19T05:43:00;17.10;;;2.93;;
5845;SDS011;2949;50.778;7.094;2023-11-19T05:45:25;34.60;;;3.43;;
5845;SDS011;2949;50.778;7.094;2023-11-19T05:47:51;20.43;;;2.37;;
5845;SDS011;2949;50.778;7.094;2023-11-19T05:50:17;17.00;;;2.40;;
5845;SDS011;2949;50.778;7.094;2023-11-19T05:52:43;13.13;;;2.33;;
5845;SDS011;2949;50.778;7.094;2023-11-19T05:55:09;29.33;;;2.90;;
5845;SDS011;2949;50.778;7.094;2023-11-19T05:57:35;15.20;;;2.50;;
5845;SDS011;2949;50.778;7.094;2023-11-19T06:00:01;16.17;;;3.03;;
5845;SDS011;2949;50.778;7.094;2023-11-19T06:02:28;16.40;;;2.70;;
5845;SDS011;2949;50.778;7.094;2023-11-19T06:04:54;21.47;;;2.13;;
5845;SDS011;2949;50.778;7.094;2023-11-19T06:07:19;18.30;;;3.80;;
5845;SDS011;2949;50.778;7.094;2023-11-19T06:09:45;17.13;;;2.20;;
5845;SDS011;2949;50.778;7.094;2023-11-19T06:12:10;17.30;;;1.93;;
5845;SDS011;2949;50.778;7.094;2023-11-19T06:14:36;23.17;;;2.60;;
5845;SDS011;2949;50.778;7.094;2023-11-19T06:17:01;12.10;;;2.47;;
5845;SDS011;2949;50.778;7.094;2023-11-19T06:19:27;11.43;;;1.70;;
5845;SDS011;2949;50.778;7.094;2023-11-19T06:21:53;21.40;;;2.60;;
5845;SDS011;2949;50.778;7.094;2023-11-19T06:24:18;15.70;;;2.70;;
5845;SDS011;2949;50.778;7.094;2023-11-19T06:26:44;18.70;;;2.30;;
5845;SDS011;2949;50.778;7.094;2023-11-19T06:29:09;18.27;;;2.87;;
5845;SDS011;2949;50.778;7.094;2023-11-19T06:31:35;23.53;;;2.03;;
5845;SDS011;2949;50.778;7.094;2023-11-19T06:34:00;8.00;;;2.20;;
5845;SDS011;2949;50.778;7.094;2023-11-19T06:36:26;19.23;;;2.80;;
5845;SDS011;2949;50.778;7.094;2023-11-19T06:38:52;9.27;;;1.80;;
5845;SDS011;2949;50.778;7.094;2023-11-19T06:41:17;20.80;;;2.50;;
5845;SDS011;2949;50.778;7.094;2023-11-19T06:43:43;10.50;;;2.50;;
5845;SDS011;2949;50.778;7.094;2023-11-19T06:46:15;15.00;;;2.80;;
5845;SDS011;2949;50.778;7.094;2023-11-19T06:48:41;12.77;;;3.00;;
5845;SDS011;2949;50.778;7.094;2023-11-19T06:51:09;6.73;;;1.93;;
5845;SDS011;2949;50.778;7.094;2023-11-19T06:53:34;10.97;;;2.27;;
5845;SDS011;2949;50.778;7.094;2023-11-19T06:56:00;11.67;;;1.47;;
5845;SDS011;2949;50.778;7.094;2023-11-19T06:58:30;14.33;;;2.17;;
5845;SDS011;2949;50.778;7.094;2023-11-19T07:00:56;14.73;;;2.83;;
5845;SDS011;2949;50.778;7.094;2023-11-19T07:03:21;11.23;;;2.00;;
5845;SDS011;2949;50.778;7.094;2023-11-19T07:05:47;22.53;;;2.47;;
5845;SDS011;2949;50.778;7.094;2023-11-19T07:08:13;16.10;;;1.90;;
5845;SDS011;2949;50.778;7.094;2023-11-19T07:10:39;12.30;;;1.90;;
5845;SDS011;2949;50.778;7.094;2023-11-19T07:13:04;19.30;;;4.00;;
5845;SDS011;2949;50.778;7.094;2023-11-19T07:15:31;13.50;;;1.67;;
5845;SDS011;2949;50.778;7.094;2023-11-19T07:17:57;20.40;;;3.20;;
5845;SDS011;2949;50.778;7.094;2023-11-19T07:20:24;23.87;;;3.07;;
5845;SDS011;2949;50.778;7.094;2023-11-19T07:22:52;22.43;;;2.87;;
5845;SDS011;2949;50.778;7.094;2023-11-19T07:25:19;18.13;;;2.43;;
5845;SDS011;2949;50.778;7.094;2023-11-19T07:27:45;16.80;;;3.83;;
5845;SDS011;2949;50.778;7.094;2023-11-19T07:30:12;20.03;;;2.67;;
5845;SDS011;2949;50.778;7.094;2023-11-19T07:32:37;21.50;;;4.23;;
5845;SDS011;2949;50.778;7.094;2023-11-19T07:35:04;17.93;;;2.47;;
5845;SDS011;2949;50.778;7.094;2023-11-19T07:37:30;13.30;;;2.37;;
5845;SDS011;2949;50.778;7.094;2023-11-19T07:39:56;29.67;;;4.13;;
5845;SDS011;2949;50.778;7.094;2023-11-19T07:42:21;15.67;;;2.43;;
5845;SDS011;2949;50.778;7.094;2023-11-19T07:44:47;17.27;;;2.50;;
5845;SDS011;2949;50.778;7.094;2023-11-19T07:47:13;15.17;;;2.27;;
5845;SDS011;2949;50.778;7.094;2023-11-19T07:49:38;16.03;;;2.80;;
5845;SDS011;2949;50.778;7.094;2023-11-19T07:52:04;10.37;;;2.13;;
5845;SDS011;2949;50.778;7.094;2023-11-19T07:54:30;13.70;;;3.00;;
5845;SDS011;2949;50.778;7.094;2023-11-19T07:56:55;15.73;;;2.43;;
5845;SDS011;2949;50.778;7.094;2023-11-19T07:59:21;28.20;;;2.90;;
5845;SDS011;2949;50.778;7.094;2023-11-19T08:01:46;17.20;;;2.70;;
5845;SDS011;2949;50.778;7.094;2023-11-19T08:04:12;16.10;;;3.10;;
5845;SDS011;2949;50.778;7.094;2023-11-19T08:06:38;21.60;;;3.30;;
5845;SDS011;2949;50.778;7.094;2023-11-19T08:09:04;13.80;;;2.93;;
5845;SDS011;2949;50.778;7.094;2023-11-19T08:11:30;23.50;;;4.90;;
5845;SDS011;2949;50.778;7.094;2023-11-19T08:13:56;19.90;;;3.67;;
5845;SDS011;2949;50.778;7.094;2023-11-19T08:16:22;17.87;;;2.67;;
5845;SDS011;2949;50.778;7.094;2023-11-19T08:18:47;19.23;;;2.60;;
5845;SDS011;2949;50.778;7.094;2023-11-19T08:21:13;10.30;;;2.27;;
5845;SDS011;2949;50.778;7.094;2023-11-19T08:23:38;16.53;;;2.90;;
5845;SDS011;2949;50.778;7.094;2023-11-19T08:26:05;14.40;;;3.07;;
5845;SDS011;2949;50.778;7.094;2023-11-19T08:28:31;27.73;;;2.83;;
5845;SDS011;2949;50.778;7.094;2023-11-19T08:30:56;15.37;;;2.50;;
5845;SDS011;2949;50.778;7.094;2023-11-19T08:33:23;12.97;;;2.33;;
5845;SDS011;2949;50.778;7.094;2023-11-19T08:35:49;10.43;;;2.20;;
5845;SDS011;2949;50.778;7.094;2023-11-19T08:38:15;22.93;;;2.77;;
5845;SDS011;2949;50.778;7.094;2023-11-19T08:40:40;12.10;;;2.30;;
5845;SDS011;2949;50.778;7.094;2023-11-19T08:43:06;14.70;;;2.50;;
5845;SDS011;2949;50.778;7.094;2023-11-19T08:45:31;22.10;;;3.23;;
5845;SDS011;2949;50.778;7.094;2023-11-19T08:47:57;17.23;;;2.30;;
5845;SDS011;2949;50.778;7.094;2023-11-19T08:50:22;23.00;;;3.73;;
5845;SDS011;2949;50.778;7.094;2023-11-19T08:52:48;20.00;;;3.27;;
5845;SDS011;2949;50.778;7.094;2023-11-19T08:55:14;14.53;;;3.00;;
5845;SDS011;2949;50.778;7.094;2023-11-19T08:57:40;16.63;;;2.33;;
5845;SDS011;2949;50.778;7.094;2023-11-19T09:00:05;22.47;;;4.43;;
5845;SDS011;2949;50.778;7.094;2023-11-19T09:02:37;22.13;;;2.83;;
5845;SDS011;2949;50.778;7.094;2023-11-19T09:05:03;18.60;;;3.57;;
5845;SDS011;2949;50.778;7.094;2023-11-19T09:07:29;20.63;;;3.70;;
5845;SDS011;2949;50.778;7.094;2023-11-19T09:09:55;18.40;;;2.90;;
5845;SDS011;2949;50.778;7.094;2023-11-19T09:12:20;19.77;;;2.37;;
5845;SDS011;2949;50.778;7.094;2023-11-19T09:14:46;21.13;;;3.07;;
5845;SDS011;2949;50.778;7.094;2023-11-19T09:17:11;19.10;;;3.67;;
5845;SDS011;2949;50.778;7.094;2023-11-19T09:19:37;13.43;;;2.57;;
5845;SDS011;2949;50.778;7.094;2023-11-19T09:22:02;14.27;;;2.90;;
5845;SDS011;2949;50.778;7.094;2023-11-19T09:24:28;12.80;;;2.50;;
5845;SDS011;2949;50.778;7.094;2023-11-19T09:26:54;13.20;;;2.50;;
5845;SDS011;2949;50.778;7.094;2023-11-19T09:29:21;17.30;;;3.10;;
5845;SDS011;2949;50.778;7.094;2023-11-19T09:31:46;24.30;;;4.27;;
5845;SDS011;2949;50.778;7.094;2023-11-19T09:34:12;17.20;;;2.60;;
5845;SDS011;2949;50.778;7.094;2023-11-19T09:36:38;14.60;;;2.63;;
5845;SDS011;2949;50.778;7.094;2023-11-19T09:39:04;19.67;;;3.10;;
5845;SDS011;2949;50.778;7.094;2023-11-19T09:41:30;16.17;;;2.60;;
5845;SDS011;2949;50.778;7.094;2023-11-19T09:43:57;23.87;;;3.30;;
5845;SDS011;2949;50.778;7.094;2023-11-19T09:46:23;14.07;;;2.57;;
5845;SDS011;2949;50.778;7.094;2023-11-19T09:48:49;13.37;;;2.80;;
5845;SDS011;2949;50.778;7.094;2023-11-19T09:51:19;18.67;;;3.60;;
5845;SDS011;2949;50.778;7.094;2023-11-19T09:53:45;12.87;;;2.90;;
5845;SDS011;2949;50.778;7.094;2023-11-19T09:56:10;14.40;;;3.30;;
5845;SDS011;2949;50.778;7.094;2023-11-19T09:58:37;12.67;;;2.50;;
5845;SDS011;2949;50.778;7.094;2023-11-19T10:01:03;23.27;;;3.00;;
5845;SDS011;2949;50.778;7.094;2023-11-19T10:03:35;21.80;;;2.50;;
5845;SDS011;2949;50.778;7.094;2023-11-19T10:06:03;14.87;;;3.10;;
5845;SDS011;2949;50.778;7.094;2023-11-19T10:08:29;8.50;;;2.70;;
5845;SDS011;2949;50.778;7.094;2023-11-19T10:10:55;13.17;;;3.40;;
5845;SDS011;2949;50.778;7.094;2023-11-19T10:13:25;16.17;;;3.17;;
5845;SDS011;2949;50.778;7.094;2023-11-19T10:15:52;15.80;;;3.10;;
5845;SDS011;2949;50.778;7.094;2023-11-19T10:18:18;27.73;;;3.80;;
5845;SDS011;2949;50.778;7.094;2023-11-19T10:20:43;16.00;;;3.57;;
5845;SDS011;2949;50.778;7.094;2023-11-19T10:23:10;16.90;;;2.90;;
5845;SDS011;2949;50.778;7.094;2023-11-19T10:25:36;18.17;;;3.53;;
5845;SDS011;2949;50.778;7.094;2023-11-19T10:28:01;17.13;;;2.77;;
5845;SDS011;2949;50.778;7.094;2023-11-19T10:30:28;14.80;;;2.90;;
5845;SDS011;2949;50.778;7.094;2023-11-19T10:35:55;19.60;;;3.10;;
5845;SDS011;2949;50.778;7.094;2023-11-19T10:38:22;16.13;;;3.27;;
5845;SDS011;2949;50.778;7.094;2023-11-19T10:40:48;12.93;;;2.80;;
5845;SDS011;2949;50.778;7.094;2023-11-19T10:43:15;19.97;;;3.10;;
5845;SDS011;2949;50.778;7.094;2023-11-19T10:45:42;27.23;;;3.40;;
5845;SDS011;2949;50.778;7.094;2023-11-19T10:48:08;12.30;;;2.90;;
5845;SDS011;2949;50.778;7.094;2023-11-19T10:50:38;27.07;;;3.97;;
5845;SDS011;2949;50.778;7.094;2023-11-19T10:53:05;15.13;;;2.53;;
5845;SDS011;2949;50.778;7.094;2023-11-19T10:55:33;20.77;;;3.10;;
5845;SDS011;2949;50.778;7.094;2023-11-19T10:58:03;14.53;;;3.07;;
5845;SDS011;2949;50.778;7.094;2023-11-19T11:00:30;21.37;;;2.77;;
5845;SDS011;2949;50.778;7.094;2023-11-19T11:03:17;24.07;;;5.63;;
5845;SDS011;2949;50.778;7.094;2023-11-19T11:05:46;18.50;;;2.80;;
5845;SDS011;2949;50.778;7.094;2023-11-19T11:08:12;20.10;;;3.50;;
5845;SDS011;2949;50.778;7.094;2023-11-19T11:10:51;18.10;;;2.80;;
5845;SDS011;2949;50.778;7.094;2023-11-19T11:13:18;16.20;;;2.77;;
5845;SDS011;2949;50.778;7.094;2023-11-19T11:15:45;20.70;;;3.00;;
5845;SDS011;2949;50.778;7.094;2023-11-19T11:18:12;13.70;;;2.80;;
5845;SDS011;2949;50.778;7.094;2023-11-19T11:20:38;14.60;;;3.60;;
5845;SDS011;2949;50.778;7.094;2023-11-19T11:28:59;19.83;;;3.07;;
5845;SDS011;2949;50.778;7.094;2023-11-19T11:31:57;17.10;;;3.13;;
5845;SDS011;2949;50.778;7.094;2023-11-19T11:34:58;17.30;;;3.40;;
5845;SDS011;2949;50.778;7.094;2023-11-19T11:37:46;15.73;;;2.90;;
5845;SDS011;2949;50.778;7.094;2023-11-19T11:40:18;16.70;;;2.50;;
5845;SDS011;2949;50.778;7.094;2023-11-19T11:42:44;14.90;;;2.60;;
5845;SDS011;2949;50.778;7.094;2023-11-19T11:45:10;17.00;;;3.93;;
5845;SDS011;2949;50.778;7.094;2023-11-19T11:55:27;14.70;;;2.33;;
5845;SDS011;2949;50.778;7.094;2023-11-19T11:58:03;13.43;;;2.27;;
5845;SDS011;2949;50.778;7.094;2023-11-19T12:00:30;14.60;;;2.57;;
5845;SDS011;2949;50.778;7.094;2023-11-19T12:03:06;16.83;;;2.07;;
5845;SDS011;2949;50.778;7.094;2023-11-19T12:05:33;16.20;;;2.80;;
5845;SDS011;2949;50.778;7.094;2023-11-19T12:08:12;14.07;;;2.73;;
5845;SDS011;2949;50.778;7.094;2023-11-19T12:10:44;22.47;;;2.80;;
5845;SDS011;2949;50.778;7.094;2023-11-19T12:13:14;20.83;;;3.10;;
5845;SDS011;2949;50.778;7.094;2023-11-19T12:18:21;10.90;;;2.27;;
5845;SDS011;2949;50.778;7.094;2023-11-19T12:20:48;12.37;;;2.27;;
5845;SDS011;2949;50.778;7.094;2023-11-19T12:23:14;12.23;;;1.93;;
5845;SDS011;2949;50.778;7.094;2023-11-19T12:25:40;9.37;;;1.63;;
5845;SDS011;2949;50.778;7.094;2023-11-19T12:28:06;14.77;;;2.43;;
5845;SDS011;2949;50.778;7.094;2023-11-19T12:30:36;10.67;;;1.53;;
5845;SDS011;2949;50.778;7.094;2023-11-19T12:33:07;19.17;;;2.60;;
5845;SDS011;2949;50.778;7.094;2023-11-19T12:35:39;11.03;;;2.07;;
5845;SDS011;2949;50.778;7.094;2023-11-19T12:38:06;15.10;;;2.80;;
5845;SDS011;2949;50.778;7.094;2023-11-19T12:40:31;17.73;;;2.87;;
5845;SDS011;2949;50.778;7.094;2023-11-19T12:42:57;20.40;;;3.97;;
5845;SDS011;2949;50.778;7.094;2023-11-19T12:45:24;14.90;;;2.53;;
5845;SDS011;2949;50.778;7.094;2023-11-19T12:47:49;17.80;;;2.60;;
5845;SDS011;2949;50.778;7.094;2023-11-19T12:50:17;18.83;;;2.60;;
5845;SDS011;2949;50.778;7.094;2023-11-19T12:52:54;11.77;;;2.20;;
5845;SDS011;2949;50.778;7.094;2023-11-19T12:55:25;12.47;;;2.23;;
5845;SDS011;2949;50.778;7.094;2023-11-19T12:57:53;10.73;;;1.67;;
5845;SDS011;2949;50.778;7.094;2023-11-19T13:00:24;15.33;;;2.47;;
5845;SDS011;2949;50.778;7.094;2023-11-19T13:02:52;10.67;;;2.03;;
5845;SDS011;2949;50.778;7.094;2023-11-19T13:08:15;10.80;;;1.90;;
5845;SDS011;2949;50.778;7.094;2023-11-19T13:13:13;11.20;;;2.10;;
5845;SDS011;2949;50.778;7.094;2023-11-19T13:15:39;14.73;;;3.00;;
5845;SDS011;2949;50.778;7.094;2023-11-19T13:18:05;15.80;;;2.50;;
5845;SDS011;2949;50.778;7.094;2023-11-19T13:20:31;12.03;;;2.00;;
5845;SDS011;2949;50.778;7.094;2023-11-19T13:22:58;12.37;;;2.63;;
5845;SDS011;2949;50.778;7.094;2023-11-19T13:25:25;9.70;;;2.13;;
5845;SDS011;2949;50.778;7.094;2023-11-19T13:27:52;15.83;;;2.00;;
5845;SDS011;2949;50.778;7.094;2023-11-19T13:30:19;15.73;;;1.83;;
5845;SDS011;2949;50.778;7.094;2023-11-19T13:32:45;12.20;;;2.23;;
5845;SDS011;2949;50.778;7.094;2023-11-19T13:35:14;8.63;;;1.90;;
5845;SDS011;2949;50.778;7.094;2023-11-19T13:37:40;9.30;;;3.03;;
5845;SDS011;2949;50.778;7.094;2023-11-19T13:40:06;16.97;;;3.30;;
5845;SDS011;2949;50.778;7.094;2023-11-19T13:42:32;11.23;;;2.03;;
5845;SDS011;2949;50.778;7.094;2023-11-19T13:44:58;10.37;;;2.53;;
5845;SDS011;2949;50.778;7.094;2023-11-19T13:47:23;13.67;;;3.50;;
5845;SDS011;2949;50.778;7.094;2023-11-19T13:49:49;12.73;;;3.07;;
5845;SDS011;2949;50.778;7.094;2023-11-19T13:52:14;17.73;;;2.53;;
5845;SDS011;2949;50.778;7.094;2023-11-19T13:54:40;23.47;;;3.17;;
5845;SDS011;2949;50.778;7.094;2023-11-19T13:57:06;22.60;;;2.53;;
5845;SDS011;2949;50.778;7.094;2023-11-19T13:59:31;18.60;;;2.10;;
5845;SDS011;2949;50.778;7.094;2023-11-19T14:01:59;20.63;;;2.97;;
5845;SDS011;2949;50.778;7.094;2023-11-19T14:04:25;17.07;;;2.87;;
5845;SDS011;2949;50.778;7.094;2023-11-19T14:06:51;16.23;;;3.10;;
5845;SDS011;2949;50.778;7.094;2023-11-19T14:09:17;16.63;;;3.17;;
5845;SDS011;2949;50.778;7.094;2023-11-19T14:11:43;21.57;;;2.60;;
5845;SDS011;2949;50.778;7.094;2023-11-19T14:14:08;21.37;;;2.80;;
5845;SDS011;2949;50.778;7.094;2023-11-19T14:16:34;18.90;;;3.00;;
5845;SDS011;2949;50.778;7.094;2023-11-19T14:19:00;20.07;;;2.83;;
5845;SDS011;2949;50.778;7.094;2023-11-19T14:21:25;19.50;;;3.23;;
5845;SDS011;2949;50.778;7.094;2023-11-19T14:23:51;7.80;;;2.03;;
5845;SDS011;2949;50.778;7.094;2023-11-19T14:26:17;20.10;;;2.53;;
5845;SDS011;2949;50.778;7.094;2023-11-19T14:28:43;11.27;;;2.20;;
5845;SDS011;2949;50.778;7.094;2023-11-19T14:31:08;15.63;;;2.63;;
5845;SDS011;2949;50.778;7.094;2023-11-19T14:33:34;8.93;;;2.33;;
5845;SDS011;2949;50.778;7.094;2023-11-19T14:36:01;24.17;;;2.53;;
5845;SDS011;2949;50.778;7.094;2023-11-19T14:38:26;10.30;;;1.50;;
5845;SDS011;2949;50.778;7.094;2023-11-19T14:40:52;15.30;;;2.07;;
5845;SDS011;2949;50.778;7.094;2023-11-19T14:43:18;10.23;;;1.77;;
5845;SDS011;2949;50.778;7.094;2023-11-19T14:45:43;10.03;;;1.50;;
5845;SDS011;2949;50.778;7.094;2023-11-19T14:48:09;12.27;;;1.67;;
5845;SDS011;2949;50.778;7.094;2023-11-19T14:50:35;9.60;;;1.40;;
5845;SDS011;2949;50.778;7.094;2023-11-19T14:53:00;10.07;;;1.80;;
5845;SDS011;2949;50.778;7.094;2023-11-19T14:55:27;12.17;;;2.00;;
5845;SDS011;2949;50.778;7.094;2023-11-19T14:57:52;11.67;;;2.00;;
5845;SDS011;2949;50.778;7.094;2023-11-19T15:00:18;12.57;;;2.00;;
5845;SDS011;2949;50.778;7.094;2023-11-19T15:02:44;8.13;;;2.10;;
5845;SDS011;2949;50.778;7.094;2023-11-19T15:05:10;12.47;;;2.23;;
5845;SDS011;2949;50.778;7.094;2023-11-19T15:07:36;14.50;;;2.53;;
5845;SDS011;2949;50.778;7.094;2023-11-19T15:10:02;18.00;;;1.87;;
5845;SDS011;2949;50.778;7.094;2023-11-19T15:12:28;12.40;;;1.77;;
5845;SDS011;2949;50.778;7.094;2023-11-19T15:14:54;10.70;;;2.10;;
5845;SDS011;2949;50.778;7.094;2023-11-19T15:17:20;18.70;;;3.73;;
5845;SDS011;2949;50.778;7.094;2023-11-19T15:19:46;8.63;;;2.10;;
5845;SDS011;2949;50.778;7.094;2023-11-19T15:22:13;15.07;;;2.00;;
5845;SDS011;2949;50.778;7.094;2023-11-19T15:24:38;18.33;;;3.00;;
5845;SDS011;2949;50.778;7.094;2023-11-19T15:27:06;13.33;;;2.27;;